Time;durP1;ratioP1;P1;durP2;ratioP2;P2;SDS_P1;SDS_P2;PMS_P1;PMS_P2;Temp;Humidity;BMP_temperature;BMP_pressure;BME280_temperature;BME280_humidity;BME280_pressure;Samples;Min_cycle;Max_cycle;Signal;HPM_P1;HPM_P2
2021/05/26 00:03:23;;;;;;;6.53;1.87;;;9.20;99.90;;;;;;6722655;88;20283;-77
2021/05/26 00:13:23;;;;;;;5.57;1.73;;;9.10;99.90;;;;;;6723529;88;20225;-77
2021/05/26 00:23:24;;;;;;;3.97;1.70;;;9.00;99.90;;;;;;6721598;88;20187;-76
2021/05/26 00:33:25;;;;;;;4.80;1.80;;;8.80;99.90;;;;;;6722480;88;20634;-75
2021/05/26 00:43:26;;;;;;;7.43;2.28;;;8.80;99.90;;;;;;6720908;88;20818;-76
2021/05/26 00:53:28;;;;;;;4.68;1.83;;;8.80;99.90;;;;;;6725691;88;20284;-77
2021/05/26 01:03:29;;;;;;;5.32;1.90;;;8.90;99.90;;;;;;6725131;88;20175;-77
2021/05/26 01:13:30;;;;;;;5.20;1.80;;;8.90;99.90;;;;;;6734692;88;20189;-77
2021/05/26 01:23:31;;;;;;;6.28;1.85;;;9.00;99.90;;;;;;6727167;88;20249;-78
2021/05/26 01:33:32;;;;;;;6.78;1.60;;;9.20;99.90;;;;;;6731236;88;20203;-76
2021/05/26 01:43:34;;;;;;;4.65;1.70;;;9.20;99.90;;;;;;6727666;88;20243;-78
2021/05/26 01:53:35;;;;;;;7.00;1.75;;;9.10;99.90;;;;;;6724714;88;20185;-76
2021/05/26 02:13:40;;;;;;;8.07;2.03;;;9.10;99.90;;;;;;6738069;88;20254;-75
2021/05/26 02:23:40;;;;;;;6.40;1.87;;;9.10;99.90;;;;;;6721463;88;20643;-77
2021/05/26 02:33:41;;;;;;;4.57;2.05;;;9.10;99.90;;;;;;6721446;88;20769;-77
2021/05/26 02:43:42;;;;;;;4.15;2.00;;;9.10;99.90;;;;;;6721535;88;20198;-78
2021/05/26 02:53:42;;;;;;;5.20;1.60;;;9.00;99.90;;;;;;6721188;88;20228;-77
2021/05/26 03:03:43;;;;;;;4.60;1.30;;;8.90;99.90;;;;;;6720875;88;20190;-78
2021/05/26 03:13:43;;;;;;;6.70;1.50;;;8.90;99.90;;;;;;6721059;88;20512;-77
2021/05/26 03:23:44;;;;;;;5.70;1.55;;;8.80;99.90;;;;;;6720515;88;20208;-77
2021/05/26 03:33:45;;;;;;;3.95;1.30;;;8.70;99.90;;;;;;6723615;88;20299;-78
2021/05/26 03:43:46;;;;;;;6.17;1.33;;;8.70;99.90;;;;;;6724852;88;20190;-77
2021/05/26 03:53:46;;;;;;;4.68;1.62;;;8.70;99.90;;;;;;6724014;88;20681;-77
2021/05/26 04:03:47;;;;;;;3.75;1.50;;;8.70;99.90;;;;;;6724561;88;20332;-77
2021/05/26 04:13:47;;;;;;;4.30;1.42;;;8.70;99.90;;;;;;6725072;88;20332;-78
2021/05/26 04:23:48;;;;;;;3.33;1.45;;;8.60;99.90;;;;;;6721462;88;20190;-77
2021/05/26 04:33:48;;;;;;;3.47;1.40;;;8.70;99.90;;;;;;6722448;88;21021;-77
2021/05/26 04:43:49;;;;;;;3.90;1.40;;;8.70;99.90;;;;;;6721642;88;20695;-78
2021/05/26 04:53:50;;;;;;;1.98;1.25;;;8.70;99.90;;;;;;6721350;88;20232;-77
2021/05/26 05:03:50;;;;;;;2.90;1.30;;;8.70;99.90;;;;;;6722378;88;20219;-76
2021/05/26 05:13:51;;;;;;;2.67;1.30;;;8.70;99.90;;;;;;6722176;88;20278;-78
2021/05/26 05:23:52;;;;;;;3.30;1.00;;;8.70;99.90;;;;;;6721567;88;20209;-77
2021/05/26 05:33:52;;;;;;;3.60;0.90;;;8.90;99.90;;;;;;6721261;88;20189;-77
2021/05/26 05:43:53;;;;;;;2.30;1.20;;;9.10;99.90;;;;;;6721237;88;20225;-77
2021/05/26 05:53:53;;;;;;;3.53;1.02;;;9.10;99.90;;;;;;6721672;88;20218;-77
2021/05/26 06:03:54;;;;;;;2.72;1.00;;;9.20;99.90;;;;;;6721251;88;20323;-75
2021/05/26 06:13:55;;;;;;;2.60;0.73;;;9.30;99.90;;;;;;6719940;88;20207;-76
2021/05/26 06:23:55;;;;;;;3.87;0.60;;;9.50;99.90;;;;;;6709930;88;20190;-76
2021/05/26 06:33:56;;;;;;;1.37;0.60;;;9.70;99.90;;;;;;6710077;88;20194;-75
2021/05/26 06:43:57;;;;;;;3.37;0.60;;;10.20;99.90;;;;;;6701926;88;20277;-75
2021/05/26 06:53:57;;;;;;;1.05;0.50;;;10.40;99.90;;;;;;6703004;88;20194;-75
2021/05/26 07:03:58;;;;;;;3.67;0.60;;;10.50;99.90;;;;;;6705930;88;20697;-74
2021/05/26 07:13:58;;;;;;;2.42;0.52;;;10.70;99.90;;;;;;6711296;88;20366;-73
2021/05/26 07:23:59;;;;;;;1.20;0.47;;;10.50;99.90;;;;;;6704180;88;20251;-74
2021/05/26 07:34:00;;;;;;;1.27;0.57;;;10.70;99.90;;;;;;6711136;88;20297;-74
2021/05/26 07:44:00;;;;;;;1.27;0.60;;;10.60;99.90;;;;;;6710315;88;20641;-74
2021/05/26 07:54:01;;;;;;;1.92;0.68;;;11.10;99.90;;;;;;6715855;88;20550;-76
2021/05/26 08:04:02;;;;;;;0.85;0.40;;;11.20;99.90;;;;;;6717640;77;20187;-77
2021/05/26 08:14:03;;;;;;;2.40;0.40;;;11.40;99.90;;;;;;6715212;88;20760;-76
2021/05/26 08:24:05;;;;;;;0.90;0.40;;;11.80;99.90;;;;;;6738040;88;20182;-76
2021/05/26 08:34:05;;;;;;;1.42;0.50;;;12.10;99.90;;;;;;6720038;88;20373;-75
2021/05/26 08:44:07;;;;;;;3.15;0.55;;;12.40;99.90;;;;;;6714227;88;20198;-75
2021/05/26 08:54:07;;;;;;;1.00;0.40;;;12.50;99.90;;;;;;6711480;88;20264;-75
2021/05/26 09:04:31;;;;;;;0.98;0.50;;;12.70;99.90;;;;;;6710478;88;20284;-75
2021/05/26 09:14:37;;;;;;;3.12;0.80;;;13.00;99.90;;;;;;6712219;88;20252;-75
2021/05/26 09:24:38;;;;;;;1.98;0.80;;;13.00;99.90;;;;;;6710681;88;20199;-76
2021/05/26 09:34:44;;;;;;;2.15;0.85;;;12.90;99.90;;;;;;6711836;88;20210;-76
2021/05/26 09:45:05;;;;;;;3.97;1.20;;;12.70;99.90;;;;;;6716281;88;20208;-72
2021/05/26 09:55:20;;;;;;;3.05;1.10;;;12.30;99.90;;;;;;6714715;88;20579;-76
2021/05/26 10:05:22;;;;;;;1.50;0.60;;;12.20;99.90;;;;;;6717184;88;20642;-76
2021/05/26 10:15:25;;;;;;;2.80;0.70;;;12.10;99.90;;;;;;6713869;88;20190;-77
2021/05/26 10:25:25;;;;;;;2.55;1.52;;;12.30;99.90;;;;;;6709939;88;20191;-76
2021/05/26 10:35:30;;;;;;;3.45;1.02;;;12.30;99.90;;;;;;6708083;88;20200;-75
2021/05/26 10:45:35;;;;;;;4.10;1.50;;;12.40;99.90;;;;;;6717175;88;20222;-77
2021/05/26 10:55:53;;;;;;;1.77;1.12;;;12.50;99.90;;;;;;6722492;88;20568;-78
2021/05/26 11:06:17;;;;;;;2.33;1.00;;;12.90;99.90;;;;;;6718381;88;20640;-77
2021/05/26 11:16:18;;;;;;;2.50;0.90;;;12.90;99.90;;;;;;6723373;88;20343;-78
2021/05/26 11:26:18;;;;;;;3.37;0.95;;;12.80;99.90;;;;;;6712199;88;20281;-78
2021/05/26 11:36:19;;;;;;;2.67;0.80;;;12.50;99.90;;;;;;6719213;88;20758;-77
2021/05/26 11:46:25;;;;;;;1.20;0.80;;;12.30;99.90;;;;;;6722275;88;20222;-77
2021/05/26 11:56:25;;;;;;;1.27;0.70;;;12.40;99.90;;;;;;6719465;88;20242;-77
2021/05/26 12:06:26;;;;;;;1.27;0.50;;;12.50;99.90;;;;;;6724008;88;20215;-77
2021/05/26 12:16:30;;;;;;;1.25;0.50;;;13.00;99.90;;;;;;6713482;88;20200;-78
2021/05/26 12:26:33;;;;;;;3.42;0.85;;;13.00;99.90;;;;;;6731266;88;20180;-77
2021/05/26 12:36:52;;;;;;;1.55;0.70;;;14.00;99.90;;;;;;6729103;88;20192;-79
2021/05/26 12:46:56;;;;;;;2.05;0.90;;;14.00;99.90;;;;;;6723130;88;20200;-77
2021/05/26 12:57:12;;;;;;;1.50;0.60;;;13.50;99.90;;;;;;6724245;88;20266;-78
2021/05/26 13:07:23;;;;;;;1.10;0.50;;;13.70;99.90;;;;;;6722634;88;20205;-77
2021/05/26 13:17:27;;;;;;;0.93;0.57;;;14.40;99.90;;;;;;6719455;88;20307;-76
2021/05/26 13:27:28;;;;;;;1.00;0.50;;;15.00;99.90;;;;;;6720973;88;20209;-76
2021/05/26 13:37:28;;;;;;;1.10;0.50;;;16.60;99.90;;;;;;6733565;88;20211;-77
2021/05/26 13:47:30;;;;;;;1.95;0.80;;;18.00;99.90;;;;;;6728755;88;20183;-76
2021/05/26 13:57:31;;;;;;;1.40;0.70;;;18.30;99.90;;;;;;6730554;88;20213;-78
2021/05/26 14:07:31;;;;;;;1.95;0.82;;;17.00;99.90;;;;;;6713249;88;20763;-77
2021/05/26 14:17:32;;;;;;;1.40;0.80;;;17.30;99.90;;;;;;6721666;88;20230;-77
2021/05/26 14:27:32;;;;;;;3.03;0.82;;;16.60;99.90;;;;;;6716861;88;20232;-77
2021/05/26 14:37:40;;;;;;;4.93;1.70;;;17.90;99.90;;;;;;6716873;88;20606;-77
2021/05/26 14:47:41;;;;;;;3.75;2.20;;;16.40;99.90;;;;;;6706829;88;20229;-76
2021/05/26 14:57:41;;;;;;;3.50;1.80;;;14.30;99.90;;;;;;6708858;88;20235;-76
2021/05/26 15:07:42;;;;;;;3.45;1.90;;;13.50;99.90;;;;;;6709176;88;20290;-76
2021/05/26 15:17:42;;;;;;;4.10;1.87;;;13.20;99.90;;;;;;6705382;88;20847;-76
2021/05/26 15:27:43;;;;;;;2.03;1.30;;;13.40;99.90;;;;;;6707613;88;20304;-78
2021/05/26 15:37:43;;;;;;;3.05;0.82;;;14.30;99.90;;;;;;6714339;88;20602;-79
2021/05/26 15:47:44;;;;;;;1.50;0.93;;;15.10;99.90;;;;;;6719278;88;20182;-76
2021/05/26 15:57:46;;;;;;;3.05;1.40;;;15.30;99.90;;;;;;6719878;88;20186;-76
2021/05/26 16:07:49;;;;;;;5.30;1.60;;;14.50;99.90;;;;;;6722628;88;20690;-78
2021/05/26 16:17:49;;;;;;;2.35;1.60;;;15.00;99.90;;;;;;6731409;88;20373;-79
2021/05/26 16:27:50;;;;;;;4.87;1.80;;;15.10;99.90;;;;;;6728417;88;20311;-78
2021/05/26 16:37:51;;;;;;;5.97;2.10;;;14.90;99.90;;;;;;6718173;88;21035;-75
2021/05/26 16:47:51;;;;;;;3.85;1.40;;;14.10;99.90;;;;;;6712867;88;21063;-75
2021/05/26 16:57:52;;;;;;;2.08;1.45;;;12.00;99.90;;;;;;6717971;88;20831;-76
2021/05/26 17:07:52;;;;;;;2.97;1.37;;;11.10;99.90;;;;;;6710038;88;20780;-75
2021/05/26 17:17:53;;;;;;;1.85;1.10;;;11.90;99.90;;;;;;6720147;88;20678;-79
2021/05/26 17:27:55;;;;;;;2.28;1.40;;;13.10;99.90;;;;;;6728990;88;20195;-78
2021/05/26 17:37:56;;;;;;;3.67;1.48;;;13.30;99.90;;;;;;6709794;88;20343;-78
2021/05/26 17:47:57;;;;;;;2.65;1.80;;;13.80;99.90;;;;;;6712807;88;20243;-80
2021/05/26 17:57:59;;;;;;;5.28;1.80;;;12.90;99.90;;;;;;6716606;88;20258;-77
2021/05/26 18:08:01;;;;;;;4.93;1.92;;;13.50;99.90;;;;;;6726794;88;20203;-76
2021/05/26 18:18:03;;;;;;;3.78;2.08;;;13.40;99.90;;;;;;6700974;88;20266;-76
2021/05/26 18:28:06;;;;;;;4.90;2.17;;;12.40;99.90;;;;;;6712464;88;20342;-76
2021/05/26 18:38:07;;;;;;;5.40;2.17;;;12.10;99.90;;;;;;6718080;88;20699;-76
2021/05/26 18:48:08;;;;;;;3.72;2.35;;;12.00;99.90;;;;;;6716463;88;20771;-74
2021/05/26 18:58:11;;;;;;;4.80;2.50;;;12.10;99.90;;;;;;6712984;88;20185;-76
2021/05/26 19:08:14;;;;;;;5.37;2.00;;;11.80;99.90;;;;;;6724523;88;20279;-74
2021/05/26 19:18:15;;;;;;;3.33;2.00;;;11.60;99.90;;;;;;6722880;88;20207;-78
2021/05/26 19:28:15;;;;;;;3.35;2.20;;;11.40;99.90;;;;;;6725633;88;20212;-75
2021/05/26 19:38:19;;;;;;;4.07;2.50;;;11.20;99.90;;;;;;6720369;88;20189;-75
2021/05/26 19:48:19;;;;;;;4.10;2.20;;;10.90;99.90;;;;;;6719654;88;20230;-76
2021/05/26 19:58:20;;;;;;;3.85;2.53;;;10.80;99.90;;;;;;6719683;88;20165;-75
2021/05/26 20:08:20;;;;;;;5.07;2.87;;;10.70;99.90;;;;;;6722482;88;20207;-76
2021/05/26 20:18:21;;;;;;;6.12;2.85;;;10.70;99.90;;;;;;6724532;88;20560;-77
2021/05/26 20:28:22;;;;;;;3.55;2.28;;;10.50;99.90;;;;;;6716146;88;20347;-75
2021/05/26 20:38:23;;;;;;;6.90;2.90;;;10.50;99.90;;;;;;6724892;88;20236;-76
2021/05/26 20:48:23;;;;;;;6.03;3.30;;;10.40;99.90;;;;;;6722398;88;20193;-77
2021/05/26 20:58:24;;;;;;;7.65;3.60;;;10.40;99.90;;;;;;6720160;88;20208;-77
2021/05/26 21:08:25;;;;;;;7.70;3.90;;;10.50;99.90;;;;;;6724606;88;20197;-77
2021/05/26 21:18:25;;;;;;;9.43;3.65;;;10.60;99.90;;;;;;6725366;88;20186;-77
2021/05/26 21:28:26;;;;;;;5.55;3.50;;;10.60;99.90;;;;;;6725985;88;20203;-77
2021/05/26 21:38:27;;;;;;;6.18;3.28;;;10.70;99.90;;;;;;6724584;88;20236;-76
2021/05/26 21:48:28;;;;;;;7.20;3.67;;;10.70;99.90;;;;;;6722659;88;20192;-77
2021/05/26 21:58:29;;;;;;;4.78;3.20;;;10.60;99.90;;;;;;6723066;88;20223;-76
2021/05/26 22:08:30;;;;;;;7.37;3.92;;;10.60;99.90;;;;;;6716096;88;20230;-76
2021/05/26 22:18:30;;;;;;;7.75;4.70;;;10.70;99.90;;;;;;6721533;88;20253;-77
2021/05/26 22:28:31;;;;;;;7.70;4.55;;;10.70;99.90;;;;;;6730416;88;21044;-75
2021/05/26 22:38:32;;;;;;;8.10;5.07;;;10.80;99.90;;;;;;6725059;88;20190;-74
2021/05/26 22:48:34;;;;;;;8.27;4.68;;;10.70;99.90;;;;;;6723736;88;20250;-75
2021/05/26 22:58:34;;;;;;;6.90;4.78;;;10.80;99.90;;;;;;6723870;88;20696;-76
2021/05/26 23:08:38;;;;;;;6.53;4.70;;;10.80;99.90;;;;;;6718368;88;20212;-77
2021/05/26 23:18:38;;;;;;;9.20;4.53;;;10.80;99.90;;;;;;6724824;88;20192;-76
2021/05/26 23:28:39;;;;;;;6.75;5.05;;;10.70;99.90;;;;;;6724365;88;20622;-76
2021/05/26 23:38:39;;;;;;;9.52;5.37;;;10.80;99.90;;;;;;6723888;88;20178;-77
2021/05/26 23:48:40;;;;;;;8.63;5.00;;;10.80;99.90;;;;;;6724711;88;20240;-76
2021/05/26 23:58:40;;;;;;;9.68;4.57;;;10.80;99.90;;;;;;6726125;88;20213;-78
